sensor_id;sensor_type;location;lat;lon;timestamp;P1;durP1;ratioP1;P2;durP2;ratioP2
39340;SDS011;25059;52.132;21.062;2023-09-18T05:35:35;0.15;;;0.15;;
39340;SDS011;25059;52.132;21.062;2023-09-18T05:38:23;0.20;;;0.20;;
39340;SDS011;25059;52.132;21.062;2023-09-18T05:41:08;0.10;;;0.10;;
39340;SDS011;25059;52.132;21.062;2023-09-18T05:43:54;0.10;;;0.10;;
39340;SDS011;25059;52.132;21.062;2023-09-18T05:46:39;0.10;;;0.10;;
39340;SDS011;25059;52.132;21.062;2023-09-18T05:49:25;0.10;;;0.10;;
39340;SDS011;25059;52.132;21.062;2023-09-18T05:52:09;0.10;;;0.10;;
39340;SDS011;25059;52.132;21.062;2023-09-18T05:54:54;0.10;;;0.10;;
39340;SDS011;25059;52.132;21.062;2023-09-18T05:57:39;0.10;;;0.10;;
39340;SDS011;25059;52.132;21.062;2023-09-18T06:00:24;0.20;;;0.20;;
39340;SDS011;25059;52.132;21.062;2023-09-18T06:03:09;0.10;;;0.10;;
39340;SDS011;25059;52.132;21.062;2023-09-18T06:18:56;0.03;;;0.03;;
39340;SDS011;25059;52.132;21.062;2023-09-18T06:22:09;0.10;;;0.10;;
39340;SDS011;25059;52.132;21.062;2023-09-18T06:24:56;0.10;;;0.10;;
39340;SDS011;25059;52.132;21.062;2023-09-18T06:27:41;0.10;;;0.10;;
39340;SDS011;25059;52.132;21.062;2023-09-18T06:30:28;0.10;;;0.10;;
39340;SDS011;25059;52.132;21.062;2023-09-18T06:33:27;0.10;;;0.10;;
39340;SDS011;25059;52.132;21.062;2023-09-18T06:36:13;0.10;;;0.10;;
39340;SDS011;25059;52.132;21.062;2023-09-18T06:38:58;0.10;;;0.10;;
39340;SDS011;25059;52.132;21.062;2023-09-18T06:41:43;0.10;;;0.10;;
39340;SDS011;25059;52.132;21.062;2023-09-18T06:44:31;0.20;;;0.20;;
39340;SDS011;25059;52.132;21.062;2023-09-18T06:51:07;0.10;;;0.10;;
39340;SDS011;25059;52.132;21.062;2023-09-18T06:54:16;0.10;;;0.10;;
39340;SDS011;25059;52.132;21.062;2023-09-18T06:57:08;0.17;;;0.17;;
39340;SDS011;25059;52.132;21.062;2023-09-18T07:20:58;0.15;;;0.15;;
39340;SDS011;25059;52.132;21.062;2023-09-18T07:23:48;0.20;;;0.20;;
39340;SDS011;25059;52.132;21.062;2023-09-18T07:26:35;0.17;;;0.17;;
39340;SDS011;25059;52.132;21.062;2023-09-18T07:29:27;0.13;;;0.13;;
39340;SDS011;25059;52.132;21.062;2023-09-18T07:32:12;0.13;;;0.13;;
39340;SDS011;25059;52.132;21.062;2023-09-18T07:35:00;0.20;;;0.20;;
39340;SDS011;25059;52.132;21.062;2023-09-18T07:37:45;0.20;;;0.20;;
39340;SDS011;25059;52.132;21.062;2023-09-18T07:40:31;0.10;;;0.10;;
39340;SDS011;25059;52.132;21.062;2023-09-18T07:43:15;0.20;;;0.20;;
39340;SDS011;25059;52.132;21.062;2023-09-18T07:46:00;0.17;;;0.17;;
39340;SDS011;25059;52.132;21.062;2023-09-18T07:48:56;0.20;;;0.20;;
39340;SDS011;25059;52.132;21.062;2023-09-18T07:52:00;0.10;;;0.10;;
39340;SDS011;25059;52.132;21.062;2023-09-18T08:03:34;0.10;;;0.10;;
39340;SDS011;25059;52.132;21.062;2023-09-18T08:06:24;0.10;;;0.10;;
39340;SDS011;25059;52.132;21.062;2023-09-18T08:09:17;0.10;;;0.10;;
39340;SDS011;25059;52.132;21.062;2023-09-18T08:12:03;0.20;;;0.20;;
39340;SDS011;25059;52.132;21.062;2023-09-18T08:14:49;0.10;;;0.10;;
39340;SDS011;25059;52.132;21.062;2023-09-18T08:17:35;0.20;;;0.20;;
39340;SDS011;25059;52.132;21.062;2023-09-18T08:20:21;0.17;;;0.17;;
39340;SDS011;25059;52.132;21.062;2023-09-18T08:23:07;0.00;;;0.00;;
39340;SDS011;25059;52.132;21.062;2023-09-18T08:25:51;0.10;;;0.10;;
39340;SDS011;25059;52.132;21.062;2023-09-18T08:28:40;0.10;;;0.10;;
39340;SDS011;25059;52.132;21.062;2023-09-18T08:31:28;0.10;;;0.10;;
39340;SDS011;25059;52.132;21.062;2023-09-18T08:34:17;0.10;;;0.10;;
39340;SDS011;25059;52.132;21.062;2023-09-18T08:37:08;0.10;;;0.10;;
39340;SDS011;25059;52.132;21.062;2023-09-18T08:39:56;0.10;;;0.10;;
39340;SDS011;25059;52.132;21.062;2023-09-18T08:42:47;0.10;;;0.10;;
39340;SDS011;25059;52.132;21.062;2023-09-18T08:45:42;0.10;;;0.10;;
39340;SDS011;25059;52.132;21.062;2023-09-18T08:48:36;0.10;;;0.10;;
39340;SDS011;25059;52.132;21.062;2023-09-18T08:51:37;0.20;;;0.20;;
39340;SDS011;25059;52.132;21.062;2023-09-18T09:15:04;0.10;;;0.10;;
39340;SDS011;25059;52.132;21.062;2023-09-18T09:18:08;0.10;;;0.10;;
39340;SDS011;25059;52.132;21.062;2023-09-18T09:20:59;0.10;;;0.10;;
39340;SDS011;25059;52.132;21.062;2023-09-18T09:52:46;0.10;;;0.10;;
39340;SDS011;25059;52.132;21.062;2023-09-18T10:00:14;0.00;;;0.00;;
39340;SDS011;25059;52.132;21.062;2023-09-18T10:03:22;0.00;;;0.00;;
39340;SDS011;25059;52.132;21.062;2023-09-18T10:06:11;0.20;;;0.20;;
39340;SDS011;25059;52.132;21.062;2023-09-18T10:08:57;0.20;;;0.20;;
39340;SDS011;25059;52.132;21.062;2023-09-18T10:11:54;0.30;;;0.30;;
39340;SDS011;25059;52.132;21.062;2023-09-18T10:14:44;0.17;;;0.17;;
39340;SDS011;25059;52.132;21.062;2023-09-18T10:21:03;0.30;;;0.30;;
39340;SDS011;25059;52.132;21.062;2023-09-18T10:24:22;0.50;;;0.50;;
39340;SDS011;25059;52.132;21.062;2023-09-18T10:27:20;0.43;;;0.43;;
39340;SDS011;25059;52.132;21.062;2023-09-18T10:30:15;0.60;;;0.60;;
39340;SDS011;25059;52.132;21.062;2023-09-18T10:33:05;0.70;;;0.70;;
39340;SDS011;25059;52.132;21.062;2023-09-18T10:36:13;0.70;;;0.70;;
39340;SDS011;25059;52.132;21.062;2023-09-18T10:39:17;0.50;;;0.50;;
39340;SDS011;25059;52.132;21.062;2023-09-18T10:42:13;0.70;;;0.70;;
39340;SDS011;25059;52.132;21.062;2023-09-18T10:49:53;0.70;;;0.70;;
39340;SDS011;25059;52.132;21.062;2023-09-18T10:52:53;0.68;;;0.68;;
39340;SDS011;25059;52.132;21.062;2023-09-18T10:55:48;0.90;;;0.90;;
39340;SDS011;25059;52.132;21.062;2023-09-18T10:58:34;0.70;;;0.70;;
39340;SDS011;25059;52.132;21.062;2023-09-18T11:01:28;0.77;;;0.77;;
39340;SDS011;25059;52.132;21.062;2023-09-18T11:04:17;0.60;;;0.60;;
39340;SDS011;25059;52.132;21.062;2023-09-18T11:07:08;0.60;;;0.60;;
39340;SDS011;25059;52.132;21.062;2023-09-18T11:10:24;0.60;;;0.60;;
39340;SDS011;25059;52.132;21.062;2023-09-18T11:13:13;0.70;;;0.70;;
39340;SDS011;25059;52.132;21.062;2023-09-18T11:16:16;1.00;;;1.00;;
39340;SDS011;25059;52.132;21.062;2023-09-18T11:25:37;0.63;;;0.63;;
39340;SDS011;25059;52.132;21.062;2023-09-18T11:28:36;0.75;;;0.75;;
39340;SDS011;25059;52.132;21.062;2023-09-18T11:31:40;0.40;;;0.40;;
39340;SDS011;25059;52.132;21.062;2023-09-18T11:34:35;0.60;;;0.60;;
39340;SDS011;25059;52.132;21.062;2023-09-18T11:37:22;0.70;;;0.70;;
39340;SDS011;25059;52.132;21.062;2023-09-18T11:40:30;0.73;;;0.73;;
39340;SDS011;25059;52.132;21.062;2023-09-18T11:43:49;0.60;;;0.60;;
39340;SDS011;25059;52.132;21.062;2023-09-18T11:47:03;1.00;;;1.00;;
39340;SDS011;25059;52.132;21.062;2023-09-18T11:50:03;0.90;;;0.90;;
39340;SDS011;25059;52.132;21.062;2023-09-18T11:52:56;0.70;;;0.70;;
39340;SDS011;25059;52.132;21.062;2023-09-18T11:59:34;0.85;;;0.85;;
39340;SDS011;25059;52.132;21.062;2023-09-18T12:02:26;0.77;;;0.77;;
39340;SDS011;25059;52.132;21.062;2023-09-18T12:08:17;0.68;;;0.68;;
39340;SDS011;25059;52.132;21.062;2023-09-18T12:11:04;0.80;;;0.80;;
39340;SDS011;25059;52.132;21.062;2023-09-18T12:13:50;1.00;;;1.00;;
39340;SDS011;25059;52.132;21.062;2023-09-18T12:16:40;1.00;;;1.00;;
39340;SDS011;25059;52.132;21.062;2023-09-18T12:19:33;1.20;;;1.20;;
39340;SDS011;25059;52.132;21.062;2023-09-18T12:22:27;1.00;;;1.00;;
39340;SDS011;25059;52.132;21.062;2023-09-18T12:25:17;1.10;;;1.10;;
39340;SDS011;25059;52.132;21.062;2023-09-18T12:29:25;1.20;;;1.20;;
39340;SDS011;25059;52.132;21.062;2023-09-18T12:32:36;1.00;;;1.00;;
39340;SDS011;25059;52.132;21.062;2023-09-18T12:43:26;0.70;;;0.70;;
39340;SDS011;25059;52.132;21.062;2023-09-18T12:46:30;0.73;;;0.73;;
39340;SDS011;25059;52.132;21.062;2023-09-18T12:49:21;0.77;;;0.77;;
39340;SDS011;25059;52.132;21.062;2023-09-18T12:52:23;0.52;;;0.52;;
39340;SDS011;25059;52.132;21.062;2023-09-18T12:55:25;0.57;;;0.57;;
39340;SDS011;25059;52.132;21.062;2023-09-18T12:58:11;0.40;;;0.40;;
39340;SDS011;25059;52.132;21.062;2023-09-18T13:01:05;0.50;;;0.50;;
39340;SDS011;25059;52.132;21.062;2023-09-18T13:03:53;0.20;;;0.20;;
39340;SDS011;25059;52.132;21.062;2023-09-18T13:06:46;0.30;;;0.30;;
39340;SDS011;25059;52.132;21.062;2023-09-18T13:09:31;0.30;;;0.30;;
39340;SDS011;25059;52.132;21.062;2023-09-18T13:12:16;0.20;;;0.20;;
39340;SDS011;25059;52.132;21.062;2023-09-18T13:15:03;0.30;;;0.30;;
39340;SDS011;25059;52.132;21.062;2023-09-18T13:17:53;0.30;;;0.30;;
39340;SDS011;25059;52.132;21.062;2023-09-18T13:20:43;0.30;;;0.30;;
39340;SDS011;25059;52.132;21.062;2023-09-18T13:23:30;0.10;;;0.10;;
39340;SDS011;25059;52.132;21.062;2023-09-18T13:26:18;0.30;;;0.30;;
39340;SDS011;25059;52.132;21.062;2023-09-18T13:29:07;0.30;;;0.30;;
39340;SDS011;25059;52.132;21.062;2023-09-18T13:31:53;0.40;;;0.40;;
39340;SDS011;25059;52.132;21.062;2023-09-18T13:34:38;0.20;;;0.20;;
39340;SDS011;25059;52.132;21.062;2023-09-18T13:37:23;0.20;;;0.20;;
39340;SDS011;25059;52.132;21.062;2023-09-18T13:40:08;0.20;;;0.20;;
39340;SDS011;25059;52.132;21.062;2023-09-18T13:42:54;0.20;;;0.20;;
39340;SDS011;25059;52.132;21.062;2023-09-18T13:45:40;0.20;;;0.20;;
39340;SDS011;25059;52.132;21.062;2023-09-18T13:48:25;0.20;;;0.20;;
39340;SDS011;25059;52.132;21.062;2023-09-18T13:51:17;0.13;;;0.13;;
39340;SDS011;25059;52.132;21.062;2023-09-18T13:54:02;0.20;;;0.20;;
39340;SDS011;25059;52.132;21.062;2023-09-18T13:56:48;0.10;;;0.10;;
39340;SDS011;25059;52.132;21.062;2023-09-18T13:59:32;0.20;;;0.20;;
39340;SDS011;25059;52.132;21.062;2023-09-18T14:02:17;0.13;;;0.13;;
39340;SDS011;25059;52.132;21.062;2023-09-18T14:05:03;0.28;;;0.28;;
39340;SDS011;25059;52.132;21.062;2023-09-18T14:07:50;0.32;;;0.32;;
39340;SDS011;25059;52.132;21.062;2023-09-18T14:10:34;0.20;;;0.20;;
39340;SDS011;25059;52.132;21.062;2023-09-18T14:13:19;0.40;;;0.40;;
39340;SDS011;25059;52.132;21.062;2023-09-18T14:19:42;0.30;;;0.30;;
39340;SDS011;25059;52.132;21.062;2023-09-18T14:22:26;0.20;;;0.20;;
39340;SDS011;25059;52.132;21.062;2023-09-18T14:25:11;0.20;;;0.20;;
39340;SDS011;25059;52.132;21.062;2023-09-18T14:27:56;0.40;;;0.40;;
39340;SDS011;25059;52.132;21.062;2023-09-18T14:30:41;0.30;;;0.30;;
39340;SDS011;25059;52.132;21.062;2023-09-18T14:33:26;0.30;;;0.30;;
39340;SDS011;25059;52.132;21.062;2023-09-18T14:36:10;0.30;;;0.30;;
39340;SDS011;25059;52.132;21.062;2023-09-18T14:38:55;0.40;;;0.40;;
39340;SDS011;25059;52.132;21.062;2023-09-18T14:41:42;0.20;;;0.20;;
39340;SDS011;25059;52.132;21.062;2023-09-18T14:44:29;0.35;;;0.35;;
39340;SDS011;25059;52.132;21.062;2023-09-18T14:47:14;0.40;;;0.40;;
39340;SDS011;25059;52.132;21.062;2023-09-18T14:50:00;0.47;;;0.47;;
39340;SDS011;25059;52.132;21.062;2023-09-18T14:52:45;0.45;;;0.45;;
39340;SDS011;25059;52.132;21.062;2023-09-18T14:55:30;0.60;;;0.60;;
39340;SDS011;25059;52.132;21.062;2023-09-18T14:58:15;0.80;;;0.80;;
39340;SDS011;25059;52.132;21.062;2023-09-18T15:01:02;0.90;;;0.90;;
39340;SDS011;25059;52.132;21.062;2023-09-18T15:03:47;0.98;;;0.98;;
39340;SDS011;25059;52.132;21.062;2023-09-18T15:06:32;0.73;;;0.73;;
39340;SDS011;25059;52.132;21.062;2023-09-18T15:09:18;0.80;;;0.80;;
39340;SDS011;25059;52.132;21.062;2023-09-18T15:12:03;0.60;;;0.60;;
39340;SDS011;25059;52.132;21.062;2023-09-18T15:14:52;0.70;;;0.70;;
39340;SDS011;25059;52.132;21.062;2023-09-18T15:17:37;0.30;;;0.30;;
39340;SDS011;25059;52.132;21.062;2023-09-18T15:20:23;0.30;;;0.30;;
39340;SDS011;25059;52.132;21.062;2023-09-18T15:23:10;0.20;;;0.20;;
39340;SDS011;25059;52.132;21.062;2023-09-18T15:25:55;0.30;;;0.30;;
39340;SDS011;25059;52.132;21.062;2023-09-18T15:28:39;0.30;;;0.30;;
39340;SDS011;25059;52.132;21.062;2023-09-18T15:31:25;0.30;;;0.30;;
39340;SDS011;25059;52.132;21.062;2023-09-18T15:34:10;0.30;;;0.30;;
39340;SDS011;25059;52.132;21.062;2023-09-18T15:36:55;0.35;;;0.35;;
39340;SDS011;25059;52.132;21.062;2023-09-18T15:39:40;0.30;;;0.30;;
39340;SDS011;25059;52.132;21.062;2023-09-18T15:42:26;0.35;;;0.35;;
39340;SDS011;25059;52.132;21.062;2023-09-18T15:45:11;0.30;;;0.30;;
39340;SDS011;25059;52.132;21.062;2023-09-18T15:47:56;0.30;;;0.30;;
39340;SDS011;25059;52.132;21.062;2023-09-18T15:50:40;0.30;;;0.30;;
39340;SDS011;25059;52.132;21.062;2023-09-18T15:53:26;0.30;;;0.30;;
39340;SDS011;25059;52.132;21.062;2023-09-18T15:56:10;0.20;;;0.20;;
39340;SDS011;25059;52.132;21.062;2023-09-18T15:58:55;0.10;;;0.10;;
39340;SDS011;25059;52.132;21.062;2023-09-18T16:01:42;0.10;;;0.10;;
39340;SDS011;25059;52.132;21.062;2023-09-18T16:04:27;0.20;;;0.20;;
39340;SDS011;25059;52.132;21.062;2023-09-18T16:07:11;0.10;;;0.10;;
39340;SDS011;25059;52.132;21.062;2023-09-18T16:09:57;0.10;;;0.10;;
39340;SDS011;25059;52.132;21.062;2023-09-18T16:12:42;0.10;;;0.10;;
39340;SDS011;25059;52.132;21.062;2023-09-18T16:15:27;0.10;;;0.10;;
39340;SDS011;25059;52.132;21.062;2023-09-18T16:18:12;0.10;;;0.10;;
39340;SDS011;25059;52.132;21.062;2023-09-18T16:20:58;0.10;;;0.10;;
39340;SDS011;25059;52.132;21.062;2023-09-18T16:23:42;0.10;;;0.10;;
39340;SDS011;25059;52.132;21.062;2023-09-18T16:26:27;0.10;;;0.10;;
39340;SDS011;25059;52.132;21.062;2023-09-18T16:29:11;0.10;;;0.10;;
39340;SDS011;25059;52.132;21.062;2023-09-18T16:31:56;0.10;;;0.10;;
39340;SDS011;25059;52.132;21.062;2023-09-18T16:34:40;0.20;;;0.20;;
39340;SDS011;25059;52.132;21.062;2023-09-18T16:37:45;0.10;;;0.10;;
39340;SDS011;25059;52.132;21.062;2023-09-18T16:40:29;0.20;;;0.20;;
39340;SDS011;25059;52.132;21.062;2023-09-18T16:43:14;0.10;;;0.10;;
39340;SDS011;25059;52.132;21.062;2023-09-18T16:46:03;0.10;;;0.10;;
39340;SDS011;25059;52.132;21.062;2023-09-18T16:48:49;0.20;;;0.20;;
39340;SDS011;25059;52.132;21.062;2023-09-18T16:51:34;0.20;;;0.20;;
39340;SDS011;25059;52.132;21.062;2023-09-18T16:54:19;0.20;;;0.20;;
39340;SDS011;25059;52.132;21.062;2023-09-18T16:57:05;0.20;;;0.20;;
39340;SDS011;25059;52.132;21.062;2023-09-18T16:59:50;0.15;;;0.15;;
39340;SDS011;25059;52.132;21.062;2023-09-18T17:02:35;0.17;;;0.17;;
39340;SDS011;25059;52.132;21.062;2023-09-18T17:05:21;0.20;;;0.20;;
39340;SDS011;25059;52.132;21.062;2023-09-18T17:08:05;0.10;;;0.10;;
39340;SDS011;25059;52.132;21.062;2023-09-18T17:10:51;0.10;;;0.10;;
39340;SDS011;25059;52.132;21.062;2023-09-18T17:13:35;0.10;;;0.10;;
39340;SDS011;25059;52.132;21.062;2023-09-18T17:16:23;0.05;;;0.05;;
39340;SDS011;25059;52.132;21.062;2023-09-18T17:19:08;0.10;;;0.10;;
39340;SDS011;25059;52.132;21.062;2023-09-18T17:21:57;0.15;;;0.15;;
39340;SDS011;25059;52.132;21.062;2023-09-18T17:24:44;0.20;;;0.20;;
39340;SDS011;25059;52.132;21.062;2023-09-18T17:27:28;0.20;;;0.20;;
39340;SDS011;25059;52.132;21.062;2023-09-18T17:30:13;0.10;;;0.10;;
39340;SDS011;25059;52.132;21.062;2023-09-18T17:32:59;0.10;;;0.10;;
39340;SDS011;25059;52.132;21.062;2023-09-18T17:35:43;0.20;;;0.20;;
39340;SDS011;25059;52.132;21.062;2023-09-18T17:38:32;0.10;;;0.10;;
39340;SDS011;25059;52.132;21.062;2023-09-18T17:41:16;0.10;;;0.10;;
39340;SDS011;25059;52.132;21.062;2023-09-18T17:44:01;0.10;;;0.10;;
39340;SDS011;25059;52.132;21.062;2023-09-18T17:46:46;0.10;;;0.10;;
39340;SDS011;25059;52.132;21.062;2023-09-18T17:49:33;0.10;;;0.10;;
39340;SDS011;25059;52.132;21.062;2023-09-18T17:52:19;0.10;;;0.10;;
39340;SDS011;25059;52.132;21.062;2023-09-18T17:55:05;0.10;;;0.10;;
39340;SDS011;25059;52.132;21.062;2023-09-18T17:57:50;0.10;;;0.10;;
39340;SDS011;25059;52.132;21.062;2023-09-18T18:00:35;0.20;;;0.20;;
39340;SDS011;25059;52.132;21.062;2023-09-18T18:03:20;0.10;;;0.10;;
39340;SDS011;25059;52.132;21.062;2023-09-18T18:06:09;0.10;;;0.10;;
39340;SDS011;25059;52.132;21.062;2023-09-18T18:08:53;0.20;;;0.20;;
39340;SDS011;25059;52.132;21.062;2023-09-18T18:11:39;0.10;;;0.10;;
39340;SDS011;25059;52.132;21.062;2023-09-18T18:14:25;0.20;;;0.20;;
39340;SDS011;25059;52.132;21.062;2023-09-18T18:17:10;0.17;;;0.17;;
39340;SDS011;25059;52.132;21.062;2023-09-18T18:19:55;0.10;;;0.10;;
39340;SDS011;25059;52.132;21.062;2023-09-18T18:22:41;0.20;;;0.20;;
39340;SDS011;25059;52.132;21.062;2023-09-18T18:25:26;0.10;;;0.10;;
39340;SDS011;25059;52.132;21.062;2023-09-18T18:28:11;0.10;;;0.10;;
39340;SDS011;25059;52.132;21.062;2023-09-18T18:30:55;0.10;;;0.10;;
39340;SDS011;25059;52.132;21.062;2023-09-18T18:33:40;0.20;;;0.20;;
39340;SDS011;25059;52.132;21.062;2023-09-18T18:36:26;0.20;;;0.20;;
39340;SDS011;25059;52.132;21.062;2023-09-18T18:39:12;0.10;;;0.10;;
39340;SDS011;25059;52.132;21.062;2023-09-18T18:41:58;0.10;;;0.10;;
39340;SDS011;25059;52.132;21.062;2023-09-18T18:44:42;0.10;;;0.10;;
39340;SDS011;25059;52.132;21.062;2023-09-18T18:47:27;0.20;;;0.20;;
39340;SDS011;25059;52.132;21.062;2023-09-18T18:50:13;0.10;;;0.10;;
39340;SDS011;25059;52.132;21.062;2023-09-18T18:52:58;0.10;;;0.10;;
39340;SDS011;25059;52.132;21.062;2023-09-18T18:55:45;0.10;;;0.10;;
39340;SDS011;25059;52.132;21.062;2023-09-18T18:58:29;0.10;;;0.10;;
39340;SDS011;25059;52.132;21.062;2023-09-18T19:01:19;0.10;;;0.10;;
39340;SDS011;25059;52.132;21.062;2023-09-18T19:04:07;0.10;;;0.10;;
39340;SDS011;25059;52.132;21.062;2023-09-18T19:06:53;0.20;;;0.20;;
39340;SDS011;25059;52.132;21.062;2023-09-18T19:09:37;0.10;;;0.10;;
39340;SDS011;25059;52.132;21.062;2023-09-18T19:12:23;0.10;;;0.10;;
39340;SDS011;25059;52.132;21.062;2023-09-18T19:15:08;0.20;;;0.20;;
39340;SDS011;25059;52.132;21.062;2023-09-18T19:17:54;0.00;;;0.00;;
39340;SDS011;25059;52.132;21.062;2023-09-18T19:20:38;0.10;;;0.10;;
39340;SDS011;25059;52.132;21.062;2023-09-18T19:23:23;0.10;;;0.10;;
39340;SDS011;25059;52.132;21.062;2023-09-18T19:26:07;0.10;;;0.10;;
39340;SDS011;25059;52.132;21.062;2023-09-18T19:28:54;0.10;;;0.10;;
39340;SDS011;25059;52.132;21.062;2023-09-18T19:31:39;0.13;;;0.13;;
39340;SDS011;25059;52.132;21.062;2023-09-18T19:34:23;0.10;;;0.10;;
39340;SDS011;25059;52.132;21.062;2023-09-18T19:37:08;0.10;;;0.10;;
39340;SDS011;25059;52.132;21.062;2023-09-18T19:39:53;0.10;;;0.10;;
39340;SDS011;25059;52.132;21.062;2023-09-18T19:42:38;0.13;;;0.13;;
39340;SDS011;25059;52.132;21.062;2023-09-18T19:45:22;0.10;;;0.10;;
39340;SDS011;25059;52.132;21.062;2023-09-18T19:48:09;0.10;;;0.10;;
39340;SDS011;25059;52.132;21.062;2023-09-18T19:50:54;0.10;;;0.10;;
39340;SDS011;25059;52.132;21.062;2023-09-18T19:53:43;0.10;;;0.10;;
39340;SDS011;25059;52.132;21.062;2023-09-18T19:56:28;0.10;;;0.10;;
39340;SDS011;25059;52.132;21.062;2023-09-18T19:59:12;0.20;;;0.20;;
39340;SDS011;25059;52.132;21.062;2023-09-18T20:01:58;0.13;;;0.13;;
39340;SDS011;25059;52.132;21.062;2023-09-18T20:04:42;0.10;;;0.10;;
39340;SDS011;25059;52.132;21.062;2023-09-18T20:07:27;0.10;;;0.10;;
39340;SDS011;25059;52.132;21.062;2023-09-18T20:10:13;0.10;;;0.10;;
39340;SDS011;25059;52.132;21.062;2023-09-18T20:13:00;0.10;;;0.10;;
39340;SDS011;25059;52.132;21.062;2023-09-18T20:15:45;0.20;;;0.20;;
39340;SDS011;25059;52.132;21.062;2023-09-18T20:18:30;0.20;;;0.20;;
39340;SDS011;25059;52.132;21.062;2023-09-18T20:21:15;0.10;;;0.10;;
39340;SDS011;25059;52.132;21.062;2023-09-18T20:24:00;0.10;;;0.10;;
39340;SDS011;25059;52.132;21.062;2023-09-18T20:26:45;0.10;;;0.10;;
39340;SDS011;25059;52.132;21.062;2023-09-18T20:29:32;0.10;;;0.10;;
39340;SDS011;25059;52.132;21.062;2023-09-18T20:32:16;0.10;;;0.10;;
39340;SDS011;25059;52.132;21.062;2023-09-18T20:35:01;0.10;;;0.10;;
39340;SDS011;25059;52.132;21.062;2023-09-18T20:37:45;0.10;;;0.10;;
39340;SDS011;25059;52.132;21.062;2023-09-18T20:40:30;0.10;;;0.10;;
39340;SDS011;25059;52.132;21.062;2023-09-18T20:43:15;0.10;;;0.10;;
39340;SDS011;25059;52.132;21.062;2023-09-18T20:46:00;0.17;;;0.17;;
39340;SDS011;25059;52.132;21.062;2023-09-18T20:48:45;0.10;;;0.10;;
39340;SDS011;25059;52.132;21.062;2023-09-18T20:51:30;0.10;;;0.10;;
39340;SDS011;25059;52.132;21.062;2023-09-18T20:54:15;0.10;;;0.10;;
39340;SDS011;25059;52.132;21.062;2023-09-18T20:57:00;0.13;;;0.13;;
39340;SDS011;25059;52.132;21.062;2023-09-18T20:59:44;0.10;;;0.10;;
39340;SDS011;25059;52.132;21.062;2023-09-18T21:02:29;0.10;;;0.10;;
39340;SDS011;25059;52.132;21.062;2023-09-18T21:05:14;0.10;;;0.10;;
39340;SDS011;25059;52.132;21.062;2023-09-18T21:08:00;0.10;;;0.10;;
39340;SDS011;25059;52.132;21.062;2023-09-18T21:10:45;0.10;;;0.10;;
39340;SDS011;25059;52.132;21.062;2023-09-18T21:13:30;0.10;;;0.10;;
39340;SDS011;25059;52.132;21.062;2023-09-18T21:16:15;0.10;;;0.10;;
39340;SDS011;25059;52.132;21.062;2023-09-18T21:19:01;0.10;;;0.10;;
39340;SDS011;25059;52.132;21.062;2023-09-18T21:21:47;0.00;;;0.00;;
39340;SDS011;25059;52.132;21.062;2023-09-18T21:24:31;0.10;;;0.10;;
39340;SDS011;25059;52.132;21.062;2023-09-18T21:27:16;0.15;;;0.15;;
39340;SDS011;25059;52.132;21.062;2023-09-18T21:30:01;0.13;;;0.13;;
39340;SDS011;25059;52.132;21.062;2023-09-18T21:32:46;0.10;;;0.10;;
39340;SDS011;25059;52.132;21.062;2023-09-18T21:35:31;0.10;;;0.10;;
39340;SDS011;25059;52.132;21.062;2023-09-18T21:38:16;0.15;;;0.15;;
39340;SDS011;25059;52.132;21.062;2023-09-18T21:41:02;0.10;;;0.10;;
39340;SDS011;25059;52.132;21.062;2023-09-18T21:43:47;0.10;;;0.10;;
39340;SDS011;25059;52.132;21.062;2023-09-18T21:46:32;0.10;;;0.10;;
39340;SDS011;25059;52.132;21.062;2023-09-18T21:49:16;0.10;;;0.10;;
39340;SDS011;25059;52.132;21.062;2023-09-18T21:52:02;0.10;;;0.10;;
39340;SDS011;25059;52.132;21.062;2023-09-18T21:54:47;0.10;;;0.10;;
39340;SDS011;25059;52.132;21.062;2023-09-18T21:57:32;0.10;;;0.10;;
39340;SDS011;25059;52.132;21.062;2023-09-18T22:00:16;0.20;;;0.20;;
39340;SDS011;25059;52.132;21.062;2023-09-18T22:03:02;0.10;;;0.10;;
39340;SDS011;25059;52.132;21.062;2023-09-18T22:05:49;0.10;;;0.10;;
39340;SDS011;25059;52.132;21.062;2023-09-18T22:08:35;0.10;;;0.10;;
39340;SDS011;25059;52.132;21.062;2023-09-18T22:11:20;0.10;;;0.10;;
39340;SDS011;25059;52.132;21.062;2023-09-18T22:14:06;0.10;;;0.10;;
39340;SDS011;25059;52.132;21.062;2023-09-18T22:16:52;0.10;;;0.10;;
39340;SDS011;25059;52.132;21.062;2023-09-18T22:19:36;0.20;;;0.20;;
39340;SDS011;25059;52.132;21.062;2023-09-18T22:22:21;0.10;;;0.10;;
39340;SDS011;25059;52.132;21.062;2023-09-18T22:25:05;0.10;;;0.10;;
39340;SDS011;25059;52.132;21.062;2023-09-18T22:27:50;0.10;;;0.10;;
39340;SDS011;25059;52.132;21.062;2023-09-18T22:30:34;0.20;;;0.20;;
39340;SDS011;25059;52.132;21.062;2023-09-18T22:33:20;0.20;;;0.20;;
39340;SDS011;25059;52.132;21.062;2023-09-18T22:36:05;0.10;;;0.10;;
39340;SDS011;25059;52.132;21.062;2023-09-18T22:38:56;0.10;;;0.10;;
39340;SDS011;25059;52.132;21.062;2023-09-18T22:54:57;0.20;;;0.20;;
39340;SDS011;25059;52.132;21.062;2023-09-18T22:57:43;0.20;;;0.20;;
39340;SDS011;25059;52.132;21.062;2023-09-18T23:00:31;0.10;;;0.10;;
39340;SDS011;25059;52.132;21.062;2023-09-18T23:03:18;0.10;;;0.10;;
39340;SDS011;25059;52.132;21.062;2023-09-18T23:06:02;0.10;;;0.10;;
39340;SDS011;25059;52.132;21.062;2023-09-18T23:08:46;0.10;;;0.10;;
39340;SDS011;25059;52.132;21.062;2023-09-18T23:11:32;0.10;;;0.10;;
39340;SDS011;25059;52.132;21.062;2023-09-18T23:14:18;0.20;;;0.20;;
39340;SDS011;25059;52.132;21.062;2023-09-18T23:17:06;0.20;;;0.20;;
39340;SDS011;25059;52.132;21.062;2023-09-18T23:19:56;0.10;;;0.10;;
39340;SDS011;25059;52.132;21.062;2023-09-18T23:22:43;0.10;;;0.10;;
39340;SDS011;25059;52.132;21.062;2023-09-18T23:25:27;0.13;;;0.13;;
39340;SDS011;25059;52.132;21.062;2023-09-18T23:28:14;0.10;;;0.10;;
39340;SDS011;25059;52.132;21.062;2023-09-18T23:30:59;0.20;;;0.20;;
39340;SDS011;25059;52.132;21.062;2023-09-18T23:33:44;0.20;;;0.20;;
39340;SDS011;25059;52.132;21.062;2023-09-18T23:36:30;0.10;;;0.10;;
39340;SDS011;25059;52.132;21.062;2023-09-18T23:39:16;0.20;;;0.20;;
39340;SDS011;25059;52.132;21.062;2023-09-18T23:42:03;0.10;;;0.10;;
39340;SDS011;25059;52.132;21.062;2023-09-18T23:44:48;0.10;;;0.10;;
39340;SDS011;25059;52.132;21.062;2023-09-18T23:47:33;0.20;;;0.20;;
39340;SDS011;25059;52.132;21.062;2023-09-18T23:50:19;0.10;;;0.10;;
39340;SDS011;25059;52.132;21.062;2023-09-18T23:53:03;0.10;;;0.10;;
39340;SDS011;25059;52.132;21.062;2023-09-18T23:55:48;0.20;;;0.20;;
39340;SDS011;25059;52.132;21.062;2023-09-18T23:58:33;0.10;;;0.10;;
